sensor_id;sensor_type;location;lat;lon;timestamp;P1;durP1;ratioP1;P2;durP2;ratioP2
19780;SDS011;10050;55.492;13.506;2023-12-20T00:01:04;5.87;;;2.00;;
19780;SDS011;10050;55.492;13.506;2023-12-20T00:03:30;8.50;;;2.63;;
19780;SDS011;10050;55.492;13.506;2023-12-20T00:05:55;4.53;;;1.70;;
19780;SDS011;10050;55.492;13.506;2023-12-20T00:08:21;8.23;;;1.73;;
19780;SDS011;10050;55.492;13.506;2023-12-20T00:10:47;9.33;;;2.53;;
19780;SDS011;10050;55.492;13.506;2023-12-20T00:13:12;13.03;;;2.90;;
19780;SDS011;10050;55.492;13.506;2023-12-20T00:15:38;9.20;;;2.70;;
19780;SDS011;10050;55.492;13.506;2023-12-20T00:18:03;4.27;;;2.17;;
19780;SDS011;10050;55.492;13.506;2023-12-20T00:20:29;5.63;;;2.20;;
19780;SDS011;10050;55.492;13.506;2023-12-20T00:22:58;7.07;;;2.50;;
19780;SDS011;10050;55.492;13.506;2023-12-20T00:25:24;5.80;;;2.17;;
19780;SDS011;10050;55.492;13.506;2023-12-20T00:27:49;11.70;;;2.70;;
19780;SDS011;10050;55.492;13.506;2023-12-20T00:30:15;5.97;;;2.43;;
19780;SDS011;10050;55.492;13.506;2023-12-20T00:32:41;10.57;;;2.47;;
19780;SDS011;10050;55.492;13.506;2023-12-20T00:35:11;7.83;;;2.63;;
19780;SDS011;10050;55.492;13.506;2023-12-20T00:37:43;2.73;;;1.90;;
19780;SDS011;10050;55.492;13.506;2023-12-20T00:40:09;5.97;;;2.33;;
19780;SDS011;10050;55.492;13.506;2023-12-20T00:42:35;13.20;;;2.37;;
19780;SDS011;10050;55.492;13.506;2023-12-20T00:45:01;5.00;;;1.80;;
19780;SDS011;10050;55.492;13.506;2023-12-20T00:47:27;8.63;;;2.03;;
19780;SDS011;10050;55.492;13.506;2023-12-20T00:49:53;7.63;;;1.93;;
19780;SDS011;10050;55.492;13.506;2023-12-20T00:52:19;11.43;;;2.60;;
19780;SDS011;10050;55.492;13.506;2023-12-20T00:54:44;7.10;;;2.43;;
19780;SDS011;10050;55.492;13.506;2023-12-20T00:57:10;6.13;;;2.33;;
19780;SDS011;10050;55.492;13.506;2023-12-20T00:59:36;6.87;;;2.13;;
19780;SDS011;10050;55.492;13.506;2023-12-20T01:02:01;10.63;;;3.10;;
19780;SDS011;10050;55.492;13.506;2023-12-20T01:04:27;8.47;;;2.10;;
19780;SDS011;10050;55.492;13.506;2023-12-20T01:06:53;10.87;;;2.13;;
19780;SDS011;10050;55.492;13.506;2023-12-20T01:09:18;2.80;;;1.70;;
19780;SDS011;10050;55.492;13.506;2023-12-20T01:11:44;7.63;;;2.13;;
19780;SDS011;10050;55.492;13.506;2023-12-20T01:14:11;5.37;;;1.77;;
19780;SDS011;10050;55.492;13.506;2023-12-20T01:16:37;8.30;;;2.30;;
19780;SDS011;10050;55.492;13.506;2023-12-20T01:19:03;5.07;;;1.63;;
19780;SDS011;10050;55.492;13.506;2023-12-20T01:21:28;6.70;;;2.30;;
19780;SDS011;10050;55.492;13.506;2023-12-20T01:23:54;7.63;;;2.53;;
19780;SDS011;10050;55.492;13.506;2023-12-20T01:26:19;7.83;;;2.13;;
19780;SDS011;10050;55.492;13.506;2023-12-20T01:28:45;3.90;;;2.13;;
19780;SDS011;10050;55.492;13.506;2023-12-20T01:31:10;8.47;;;2.67;;
19780;SDS011;10050;55.492;13.506;2023-12-20T01:33:36;12.03;;;2.17;;
19780;SDS011;10050;55.492;13.506;2023-12-20T01:36:02;8.33;;;2.07;;
19780;SDS011;10050;55.492;13.506;2023-12-20T01:38:28;9.07;;;2.17;;
19780;SDS011;10050;55.492;13.506;2023-12-20T01:40:54;7.33;;;1.90;;
19780;SDS011;10050;55.492;13.506;2023-12-20T01:43:20;7.93;;;2.17;;
19780;SDS011;10050;55.492;13.506;2023-12-20T01:45:46;6.03;;;1.87;;
19780;SDS011;10050;55.492;13.506;2023-12-20T01:48:12;9.93;;;2.60;;
19780;SDS011;10050;55.492;13.506;2023-12-20T01:50:39;5.27;;;2.50;;
19780;SDS011;10050;55.492;13.506;2023-12-20T01:53:07;11.47;;;2.57;;
19780;SDS011;10050;55.492;13.506;2023-12-20T01:55:34;9.57;;;2.53;;
19780;SDS011;10050;55.492;13.506;2023-12-20T01:58:04;9.03;;;2.03;;
19780;SDS011;10050;55.492;13.506;2023-12-20T02:00:30;5.70;;;1.50;;
19780;SDS011;10050;55.492;13.506;2023-12-20T02:02:56;8.07;;;2.30;;
19780;SDS011;10050;55.492;13.506;2023-12-20T02:05:26;4.77;;;2.30;;
19780;SDS011;10050;55.492;13.506;2023-12-20T02:07:53;7.03;;;1.60;;
19780;SDS011;10050;55.492;13.506;2023-12-20T02:10:18;10.63;;;2.00;;
19780;SDS011;10050;55.492;13.506;2023-12-20T02:12:44;8.30;;;1.87;;
19780;SDS011;10050;55.492;13.506;2023-12-20T02:15:10;8.30;;;1.70;;
19780;SDS011;10050;55.492;13.506;2023-12-20T02:17:36;7.87;;;2.33;;
19780;SDS011;10050;55.492;13.506;2023-12-20T02:20:03;9.83;;;2.03;;
19780;SDS011;10050;55.492;13.506;2023-12-20T02:22:30;6.93;;;1.40;;
19780;SDS011;10050;55.492;13.506;2023-12-20T02:24:56;7.87;;;2.43;;
19780;SDS011;10050;55.492;13.506;2023-12-20T02:27:22;8.03;;;2.17;;
19780;SDS011;10050;55.492;13.506;2023-12-20T02:29:48;5.90;;;2.20;;
19780;SDS011;10050;55.492;13.506;2023-12-20T02:32:15;6.47;;;1.23;;
19780;SDS011;10050;55.492;13.506;2023-12-20T02:34:42;6.97;;;1.40;;
19780;SDS011;10050;55.492;13.506;2023-12-20T02:37:08;10.17;;;1.50;;
19780;SDS011;10050;55.492;13.506;2023-12-20T02:39:33;5.50;;;1.40;;
19780;SDS011;10050;55.492;13.506;2023-12-20T02:41:59;7.10;;;1.80;;
19780;SDS011;10050;55.492;13.506;2023-12-20T02:44:24;7.47;;;1.50;;
19780;SDS011;10050;55.492;13.506;2023-12-20T02:46:50;7.17;;;2.17;;
19780;SDS011;10050;55.492;13.506;2023-12-20T02:49:16;4.60;;;1.70;;
19780;SDS011;10050;55.492;13.506;2023-12-20T02:51:41;11.53;;;1.60;;
19780;SDS011;10050;55.492;13.506;2023-12-20T02:54:07;4.90;;;1.20;;
19780;SDS011;10050;55.492;13.506;2023-12-20T02:56:33;7.73;;;1.80;;
19780;SDS011;10050;55.492;13.506;2023-12-20T02:58:58;11.70;;;2.27;;
19780;SDS011;10050;55.492;13.506;2023-12-20T03:01:24;10.03;;;2.13;;
19780;SDS011;10050;55.492;13.506;2023-12-20T03:03:50;8.67;;;1.43;;
19780;SDS011;10050;55.492;13.506;2023-12-20T03:06:16;5.53;;;1.97;;
19780;SDS011;10050;55.492;13.506;2023-12-20T03:08:43;6.83;;;1.80;;
19780;SDS011;10050;55.492;13.506;2023-12-20T03:11:09;7.87;;;1.77;;
19780;SDS011;10050;55.492;13.506;2023-12-20T03:13:34;6.07;;;1.83;;
19780;SDS011;10050;55.492;13.506;2023-12-20T03:16:00;11.20;;;2.30;;
19780;SDS011;10050;55.492;13.506;2023-12-20T03:18:26;7.60;;;1.93;;
19780;SDS011;10050;55.492;13.506;2023-12-20T03:20:53;8.17;;;2.13;;
19780;SDS011;10050;55.492;13.506;2023-12-20T03:23:18;8.10;;;1.80;;
19780;SDS011;10050;55.492;13.506;2023-12-20T03:25:44;8.93;;;1.90;;
19780;SDS011;10050;55.492;13.506;2023-12-20T03:28:09;4.73;;;1.40;;
19780;SDS011;10050;55.492;13.506;2023-12-20T03:30:35;7.37;;;1.73;;
19780;SDS011;10050;55.492;13.506;2023-12-20T03:33:00;7.83;;;1.60;;
19780;SDS011;10050;55.492;13.506;2023-12-20T03:35:26;5.50;;;1.50;;
19780;SDS011;10050;55.492;13.506;2023-12-20T03:37:52;9.70;;;1.70;;
19780;SDS011;10050;55.492;13.506;2023-12-20T03:40:17;6.80;;;2.13;;
19780;SDS011;10050;55.492;13.506;2023-12-20T03:42:43;7.03;;;1.80;;
19780;SDS011;10050;55.492;13.506;2023-12-20T03:45:09;13.13;;;2.10;;
19780;SDS011;10050;55.492;13.506;2023-12-20T03:47:34;9.93;;;1.80;;
19780;SDS011;10050;55.492;13.506;2023-12-20T03:50:00;5.13;;;1.83;;
19780;SDS011;10050;55.492;13.506;2023-12-20T03:52:25;12.03;;;1.67;;
19780;SDS011;10050;55.492;13.506;2023-12-20T03:54:51;13.07;;;1.50;;
19780;SDS011;10050;55.492;13.506;2023-12-20T03:57:16;4.30;;;2.00;;
19780;SDS011;10050;55.492;13.506;2023-12-20T03:59:42;11.20;;;2.33;;
19780;SDS011;10050;55.492;13.506;2023-12-20T04:02:08;16.87;;;1.97;;
19780;SDS011;10050;55.492;13.506;2023-12-20T04:04:33;9.17;;;1.93;;
19780;SDS011;10050;55.492;13.506;2023-12-20T04:06:59;6.97;;;2.33;;
19780;SDS011;10050;55.492;13.506;2023-12-20T04:09:24;7.10;;;2.07;;
19780;SDS011;10050;55.492;13.506;2023-12-20T04:11:50;10.87;;;1.90;;
19780;SDS011;10050;55.492;13.506;2023-12-20T04:14:16;10.60;;;2.10;;
19780;SDS011;10050;55.492;13.506;2023-12-20T04:16:41;10.97;;;1.90;;
19780;SDS011;10050;55.492;13.506;2023-12-20T04:19:07;10.50;;;2.17;;
19780;SDS011;10050;55.492;13.506;2023-12-20T04:21:33;9.90;;;1.83;;
19780;SDS011;10050;55.492;13.506;2023-12-20T04:23:58;7.87;;;1.97;;
19780;SDS011;10050;55.492;13.506;2023-12-20T04:26:24;12.33;;;1.90;;
19780;SDS011;10050;55.492;13.506;2023-12-20T04:28:50;10.70;;;2.00;;
19780;SDS011;10050;55.492;13.506;2023-12-20T04:31:15;8.40;;;1.67;;
19780;SDS011;10050;55.492;13.506;2023-12-20T04:33:41;8.90;;;2.10;;
19780;SDS011;10050;55.492;13.506;2023-12-20T04:36:06;8.00;;;2.17;;
19780;SDS011;10050;55.492;13.506;2023-12-20T04:38:34;8.97;;;2.37;;
19780;SDS011;10050;55.492;13.506;2023-12-20T04:40:59;9.20;;;1.93;;
19780;SDS011;10050;55.492;13.506;2023-12-20T04:43:25;5.67;;;1.70;;
19780;SDS011;10050;55.492;13.506;2023-12-20T04:45:50;12.10;;;2.00;;
19780;SDS011;10050;55.492;13.506;2023-12-20T04:48:16;7.70;;;1.93;;
19780;SDS011;10050;55.492;13.506;2023-12-20T04:50:42;11.47;;;1.73;;
19780;SDS011;10050;55.492;13.506;2023-12-20T04:53:07;6.53;;;1.60;;
19780;SDS011;10050;55.492;13.506;2023-12-20T04:55:33;7.10;;;2.00;;
19780;SDS011;10050;55.492;13.506;2023-12-20T04:57:58;16.17;;;2.10;;
19780;SDS011;10050;55.492;13.506;2023-12-20T05:00:24;14.97;;;2.00;;
19780;SDS011;10050;55.492;13.506;2023-12-20T05:02:50;9.73;;;1.90;;
19780;SDS011;10050;55.492;13.506;2023-12-20T05:05:15;8.53;;;1.43;;
19780;SDS011;10050;55.492;13.506;2023-12-20T05:07:42;12.10;;;1.87;;
19780;SDS011;10050;55.492;13.506;2023-12-20T05:10:09;13.40;;;2.40;;
19780;SDS011;10050;55.492;13.506;2023-12-20T05:12:34;10.13;;;2.57;;
19780;SDS011;10050;55.492;13.506;2023-12-20T05:15:00;7.57;;;1.93;;
19780;SDS011;10050;55.492;13.506;2023-12-20T05:17:26;15.43;;;2.50;;
19780;SDS011;10050;55.492;13.506;2023-12-20T05:19:51;12.60;;;2.10;;
19780;SDS011;10050;55.492;13.506;2023-12-20T05:22:18;7.70;;;1.70;;
19780;SDS011;10050;55.492;13.506;2023-12-20T05:24:45;12.17;;;2.73;;
19780;SDS011;10050;55.492;13.506;2023-12-20T05:27:10;10.83;;;2.30;;
19780;SDS011;10050;55.492;13.506;2023-12-20T05:29:36;13.27;;;2.13;;
19780;SDS011;10050;55.492;13.506;2023-12-20T05:32:02;16.27;;;2.73;;
19780;SDS011;10050;55.492;13.506;2023-12-20T05:34:29;10.90;;;2.20;;
19780;SDS011;10050;55.492;13.506;2023-12-20T05:36:55;9.43;;;2.23;;
19780;SDS011;10050;55.492;13.506;2023-12-20T05:39:22;10.07;;;2.30;;
19780;SDS011;10050;55.492;13.506;2023-12-20T05:41:48;13.40;;;2.50;;
19780;SDS011;10050;55.492;13.506;2023-12-20T05:44:13;12.20;;;2.37;;
19780;SDS011;10050;55.492;13.506;2023-12-20T05:46:39;8.33;;;2.60;;
19780;SDS011;10050;55.492;13.506;2023-12-20T05:49:05;9.67;;;2.13;;
19780;SDS011;10050;55.492;13.506;2023-12-20T05:51:31;10.83;;;2.20;;
19780;SDS011;10050;55.492;13.506;2023-12-20T05:53:56;10.93;;;2.80;;
19780;SDS011;10050;55.492;13.506;2023-12-20T05:56:22;9.93;;;2.50;;
19780;SDS011;10050;55.492;13.506;2023-12-20T05:58:47;10.97;;;2.27;;
19780;SDS011;10050;55.492;13.506;2023-12-20T06:01:16;7.83;;;2.17;;
19780;SDS011;10050;55.492;13.506;2023-12-20T06:03:42;6.97;;;1.87;;
19780;SDS011;10050;55.492;13.506;2023-12-20T06:06:08;10.13;;;2.47;;
19780;SDS011;10050;55.492;13.506;2023-12-20T06:08:34;11.07;;;2.50;;
19780;SDS011;10050;55.492;13.506;2023-12-20T06:10:59;7.00;;;2.30;;
19780;SDS011;10050;55.492;13.506;2023-12-20T06:13:25;11.20;;;2.20;;
19780;SDS011;10050;55.492;13.506;2023-12-20T06:15:51;10.87;;;2.37;;
19780;SDS011;10050;55.492;13.506;2023-12-20T06:18:19;6.93;;;2.07;;
19780;SDS011;10050;55.492;13.506;2023-12-20T06:20:44;10.90;;;2.73;;
19780;SDS011;10050;55.492;13.506;2023-12-20T06:23:10;14.80;;;2.53;;
19780;SDS011;10050;55.492;13.506;2023-12-20T06:25:35;12.00;;;2.27;;
19780;SDS011;10050;55.492;13.506;2023-12-20T06:28:01;9.30;;;2.37;;
19780;SDS011;10050;55.492;13.506;2023-12-20T06:30:27;13.03;;;2.50;;
19780;SDS011;10050;55.492;13.506;2023-12-20T06:32:53;7.23;;;1.80;;
19780;SDS011;10050;55.492;13.506;2023-12-20T06:35:19;7.43;;;2.73;;
19780;SDS011;10050;55.492;13.506;2023-12-20T06:37:45;6.83;;;1.93;;
19780;SDS011;10050;55.492;13.506;2023-12-20T06:40:11;7.87;;;1.80;;
19780;SDS011;10050;55.492;13.506;2023-12-20T06:42:36;12.60;;;2.17;;
19780;SDS011;10050;55.492;13.506;2023-12-20T06:45:02;9.47;;;1.60;;
19780;SDS011;10050;55.492;13.506;2023-12-20T06:47:28;4.37;;;2.00;;
19780;SDS011;10050;55.492;13.506;2023-12-20T06:49:54;7.87;;;1.60;;
19780;SDS011;10050;55.492;13.506;2023-12-20T06:52:19;4.67;;;1.30;;
19780;SDS011;10050;55.492;13.506;2023-12-20T06:54:45;8.50;;;2.10;;
19780;SDS011;10050;55.492;13.506;2023-12-20T06:57:11;3.30;;;1.47;;
19780;SDS011;10050;55.492;13.506;2023-12-20T06:59:40;4.63;;;1.50;;
19780;SDS011;10050;55.492;13.506;2023-12-20T07:02:06;2.27;;;1.33;;
19780;SDS011;10050;55.492;13.506;2023-12-20T07:04:32;4.67;;;1.20;;
19780;SDS011;10050;55.492;13.506;2023-12-20T07:06:57;4.43;;;1.47;;
19780;SDS011;10050;55.492;13.506;2023-12-20T07:09:25;5.17;;;1.60;;
19780;SDS011;10050;55.492;13.506;2023-12-20T07:11:51;5.87;;;1.23;;
19780;SDS011;10050;55.492;13.506;2023-12-20T07:14:17;6.73;;;1.30;;
19780;SDS011;10050;55.492;13.506;2023-12-20T07:16:43;3.70;;;1.37;;
19780;SDS011;10050;55.492;13.506;2023-12-20T07:19:08;3.70;;;1.30;;
19780;SDS011;10050;55.492;13.506;2023-12-20T07:21:34;4.70;;;1.30;;
19780;SDS011;10050;55.492;13.506;2023-12-20T07:24:00;6.10;;;2.23;;
19780;SDS011;10050;55.492;13.506;2023-12-20T07:26:25;8.83;;;2.07;;
19780;SDS011;10050;55.492;13.506;2023-12-20T07:28:51;5.43;;;1.40;;
19780;SDS011;10050;55.492;13.506;2023-12-20T07:31:17;7.90;;;1.80;;
19780;SDS011;10050;55.492;13.506;2023-12-20T07:33:42;6.13;;;1.60;;
19780;SDS011;10050;55.492;13.506;2023-12-20T07:36:08;4.43;;;1.37;;
19780;SDS011;10050;55.492;13.506;2023-12-20T07:38:34;8.60;;;1.60;;
19780;SDS011;10050;55.492;13.506;2023-12-20T07:40:59;7.87;;;1.60;;
19780;SDS011;10050;55.492;13.506;2023-12-20T07:43:25;5.30;;;1.20;;
19780;SDS011;10050;55.492;13.506;2023-12-20T07:45:51;6.90;;;1.57;;
19780;SDS011;10050;55.492;13.506;2023-12-20T07:48:16;6.53;;;1.43;;
19780;SDS011;10050;55.492;13.506;2023-12-20T07:50:42;5.43;;;1.60;;
19780;SDS011;10050;55.492;13.506;2023-12-20T07:53:07;5.10;;;1.50;;
19780;SDS011;10050;55.492;13.506;2023-12-20T07:55:33;9.53;;;1.37;;
19780;SDS011;10050;55.492;13.506;2023-12-20T07:57:59;7.20;;;1.73;;
19780;SDS011;10050;55.492;13.506;2023-12-20T08:00:25;4.03;;;1.57;;
19780;SDS011;10050;55.492;13.506;2023-12-20T08:02:51;5.07;;;1.60;;
19780;SDS011;10050;55.492;13.506;2023-12-20T08:05:17;7.53;;;1.77;;
19780;SDS011;10050;55.492;13.506;2023-12-20T08:07:42;8.47;;;2.00;;
19780;SDS011;10050;55.492;13.506;2023-12-20T08:10:08;5.83;;;1.80;;
19780;SDS011;10050;55.492;13.506;2023-12-20T08:12:34;5.30;;;1.53;;
19780;SDS011;10050;55.492;13.506;2023-12-20T08:15:00;4.37;;;1.40;;
19780;SDS011;10050;55.492;13.506;2023-12-20T08:17:26;5.40;;;1.33;;
19780;SDS011;10050;55.492;13.506;2023-12-20T08:19:52;6.17;;;1.50;;
19780;SDS011;10050;55.492;13.506;2023-12-20T08:22:17;6.73;;;1.60;;
19780;SDS011;10050;55.492;13.506;2023-12-20T08:24:43;8.10;;;1.43;;
19780;SDS011;10050;55.492;13.506;2023-12-20T08:27:08;2.50;;;1.33;;
19780;SDS011;10050;55.492;13.506;2023-12-20T08:29:34;5.40;;;1.43;;
19780;SDS011;10050;55.492;13.506;2023-12-20T08:32:00;5.30;;;1.40;;
19780;SDS011;10050;55.492;13.506;2023-12-20T08:34:26;4.23;;;1.30;;
19780;SDS011;10050;55.492;13.506;2023-12-20T08:36:52;3.47;;;1.40;;
19780;SDS011;10050;55.492;13.506;2023-12-20T08:39:18;1.70;;;0.80;;
19780;SDS011;10050;55.492;13.506;2023-12-20T08:41:44;3.17;;;1.03;;
19780;SDS011;10050;55.492;13.506;2023-12-20T08:44:10;2.27;;;1.30;;
19780;SDS011;10050;55.492;13.506;2023-12-20T08:46:35;1.87;;;0.97;;
19780;SDS011;10050;55.492;13.506;2023-12-20T08:49:01;2.70;;;1.27;;
19780;SDS011;10050;55.492;13.506;2023-12-20T08:51:27;3.60;;;0.83;;
19780;SDS011;10050;55.492;13.506;2023-12-20T08:53:54;2.80;;;0.93;;
19780;SDS011;10050;55.492;13.506;2023-12-20T08:56:19;3.30;;;1.00;;
19780;SDS011;10050;55.492;13.506;2023-12-20T08:58:45;5.07;;;0.77;;
19780;SDS011;10050;55.492;13.506;2023-12-20T09:01:12;1.83;;;0.83;;
19780;SDS011;10050;55.492;13.506;2023-12-20T09:03:38;1.87;;;1.00;;
19780;SDS011;10050;55.492;13.506;2023-12-20T09:06:05;3.30;;;1.20;;
19780;SDS011;10050;55.492;13.506;2023-12-20T09:08:31;1.20;;;0.70;;
19780;SDS011;10050;55.492;13.506;2023-12-20T09:10:56;3.77;;;0.90;;
19780;SDS011;10050;55.492;13.506;2023-12-20T09:13:22;0.93;;;0.53;;
19780;SDS011;10050;55.492;13.506;2023-12-20T09:15:53;3.30;;;0.70;;
19780;SDS011;10050;55.492;13.506;2023-12-20T09:18:22;2.40;;;0.70;;
19780;SDS011;10050;55.492;13.506;2023-12-20T09:20:48;5.73;;;0.97;;
19780;SDS011;10050;55.492;13.506;2023-12-20T09:23:13;3.47;;;0.90;;
19780;SDS011;10050;55.492;13.506;2023-12-20T09:25:39;5.07;;;0.93;;
19780;SDS011;10050;55.492;13.506;2023-12-20T09:28:05;1.03;;;0.90;;
19780;SDS011;10050;55.492;13.506;2023-12-20T09:30:30;2.83;;;0.67;;
19780;SDS011;10050;55.492;13.506;2023-12-20T09:32:56;6.97;;;2.30;;
19780;SDS011;10050;55.492;13.506;2023-12-20T09:35:22;3.43;;;1.30;;
19780;SDS011;10050;55.492;13.506;2023-12-20T09:37:48;3.10;;;1.33;;
19780;SDS011;10050;55.492;13.506;2023-12-20T09:40:14;4.40;;;1.10;;
19780;SDS011;10050;55.492;13.506;2023-12-20T09:42:47;5.63;;;1.20;;
19780;SDS011;10050;55.492;13.506;2023-12-20T09:45:20;5.90;;;1.43;;
19780;SDS011;10050;55.492;13.506;2023-12-20T09:47:52;4.87;;;1.43;;
19780;SDS011;10050;55.492;13.506;2023-12-20T09:50:19;4.20;;;1.10;;
19780;SDS011;10050;55.492;13.506;2023-12-20T09:52:50;5.10;;;1.70;;
19780;SDS011;10050;55.492;13.506;2023-12-20T09:55:17;3.13;;;1.10;;
19780;SDS011;10050;55.492;13.506;2023-12-20T09:57:45;4.23;;;1.03;;
19780;SDS011;10050;55.492;13.506;2023-12-20T10:00:14;5.73;;;2.10;;
19780;SDS011;10050;55.492;13.506;2023-12-20T10:02:42;2.73;;;1.30;;
19780;SDS011;10050;55.492;13.506;2023-12-20T10:05:23;4.10;;;1.10;;
19780;SDS011;10050;55.492;13.506;2023-12-20T10:07:55;4.17;;;1.00;;
19780;SDS011;10050;55.492;13.506;2023-12-20T10:10:21;4.13;;;1.23;;
19780;SDS011;10050;55.492;13.506;2023-12-20T10:13:03;6.07;;;1.80;;
19780;SDS011;10050;55.492;13.506;2023-12-20T10:15:34;5.67;;;1.90;;
19780;SDS011;10050;55.492;13.506;2023-12-20T10:18:01;4.17;;;1.10;;
19780;SDS011;10050;55.492;13.506;2023-12-20T10:20:27;2.50;;;1.23;;
19780;SDS011;10050;55.492;13.506;2023-12-20T10:22:57;5.17;;;1.50;;
19780;SDS011;10050;55.492;13.506;2023-12-20T10:25:24;5.47;;;1.40;;
19780;SDS011;10050;55.492;13.506;2023-12-20T10:27:50;7.10;;;1.57;;
19780;SDS011;10050;55.492;13.506;2023-12-20T10:30:33;6.10;;;2.20;;
19780;SDS011;10050;55.492;13.506;2023-12-20T10:32:58;10.50;;;1.93;;
19780;SDS011;10050;55.492;13.506;2023-12-20T10:35:24;10.47;;;3.20;;
19780;SDS011;10050;55.492;13.506;2023-12-20T10:37:51;6.30;;;2.93;;
19780;SDS011;10050;55.492;13.506;2023-12-20T10:40:24;8.80;;;2.00;;
19780;SDS011;10050;55.492;13.506;2023-12-20T10:42:52;5.57;;;1.83;;
19780;SDS011;10050;55.492;13.506;2023-12-20T10:45:19;12.97;;;1.67;;
19780;SDS011;10050;55.492;13.506;2023-12-20T10:47:46;6.63;;;2.00;;
19780;SDS011;10050;55.492;13.506;2023-12-20T10:50:11;4.13;;;1.93;;
19780;SDS011;10050;55.492;13.506;2023-12-20T10:52:37;8.80;;;2.00;;
19780;SDS011;10050;55.492;13.506;2023-12-20T10:55:04;7.97;;;2.30;;
19780;SDS011;10050;55.492;13.506;2023-12-20T10:57:30;10.10;;;1.87;;
19780;SDS011;10050;55.492;13.506;2023-12-20T10:59:56;8.67;;;1.80;;
19780;SDS011;10050;55.492;13.506;2023-12-20T11:02:29;6.67;;;1.87;;
19780;SDS011;10050;55.492;13.506;2023-12-20T11:05:10;10.03;;;2.00;;
19780;SDS011;10050;55.492;13.506;2023-12-20T11:07:55;8.83;;;2.07;;
19780;SDS011;10050;55.492;13.506;2023-12-20T11:10:35;4.60;;;1.67;;
19780;SDS011;10050;55.492;13.506;2023-12-20T11:13:10;6.27;;;1.80;;
19780;SDS011;10050;55.492;13.506;2023-12-20T11:15:42;5.17;;;1.73;;
19780;SDS011;10050;55.492;13.506;2023-12-20T11:18:08;9.23;;;1.97;;
19780;SDS011;10050;55.492;13.506;2023-12-20T11:20:38;10.30;;;1.93;;
19780;SDS011;10050;55.492;13.506;2023-12-20T11:23:05;9.07;;;2.40;;
19780;SDS011;10050;55.492;13.506;2023-12-20T11:26:16;4.47;;;1.27;;
19780;SDS011;10050;55.492;13.506;2023-12-20T11:28:26;7.03;;;1.60;;
19780;SDS011;10050;55.492;13.506;2023-12-20T11:30:58;8.90;;;1.67;;
19780;SDS011;10050;55.492;13.506;2023-12-20T11:33:26;7.87;;;1.97;;
19780;SDS011;10050;55.492;13.506;2023-12-20T11:35:56;7.57;;;2.07;;
19780;SDS011;10050;55.492;13.506;2023-12-20T11:38:23;8.00;;;1.93;;
19780;SDS011;10050;55.492;13.506;2023-12-20T11:40:49;5.73;;;1.67;;
19780;SDS011;10050;55.492;13.506;2023-12-20T11:43:51;4.67;;;1.63;;
19780;SDS011;10050;55.492;13.506;2023-12-20T11:46:10;6.93;;;1.97;;
19780;SDS011;10050;55.492;13.506;2023-12-20T11:48:56;4.70;;;1.70;;
19780;SDS011;10050;55.492;13.506;2023-12-20T11:51:44;4.17;;;1.20;;
19780;SDS011;10050;55.492;13.506;2023-12-20T11:54:09;4.27;;;1.50;;
19780;SDS011;10050;55.492;13.506;2023-12-20T11:56:36;5.57;;;1.87;;
19780;SDS011;10050;55.492;13.506;2023-12-20T11:59:02;2.80;;;0.77;;
19780;SDS011;10050;55.492;13.506;2023-12-20T12:01:28;5.63;;;2.00;;
19780;SDS011;10050;55.492;13.506;2023-12-20T12:04:03;4.87;;;1.67;;
19780;SDS011;10050;55.492;13.506;2023-12-20T12:06:29;3.90;;;1.70;;
19780;SDS011;10050;55.492;13.506;2023-12-20T12:08:55;5.97;;;1.43;;
19780;SDS011;10050;55.492;13.506;2023-12-20T12:11:21;1.80;;;0.80;;
19780;SDS011;10050;55.492;13.506;2023-12-20T12:13:47;2.60;;;1.00;;
19780;SDS011;10050;55.492;13.506;2023-12-20T12:16:16;2.47;;;0.87;;
19780;SDS011;10050;55.492;13.506;2023-12-20T12:18:44;2.60;;;0.70;;
19780;SDS011;10050;55.492;13.506;2023-12-20T12:21:10;4.23;;;0.87;;
19780;SDS011;10050;55.492;13.506;2023-12-20T12:23:35;1.13;;;0.80;;
19780;SDS011;10050;55.492;13.506;2023-12-20T12:26:03;2.00;;;0.60;;
19780;SDS011;10050;55.492;13.506;2023-12-20T12:28:29;2.40;;;0.87;;
19780;SDS011;10050;55.492;13.506;2023-12-20T12:31:00;2.23;;;1.10;;
19780;SDS011;10050;55.492;13.506;2023-12-20T12:33:26;5.13;;;1.27;;
19780;SDS011;10050;55.492;13.506;2023-12-20T12:35:52;4.27;;;0.70;;
19780;SDS011;10050;55.492;13.506;2023-12-20T12:38:21;1.67;;;1.00;;
19780;SDS011;10050;55.492;13.506;2023-12-20T12:40:46;6.57;;;1.00;;
19780;SDS011;10050;55.492;13.506;2023-12-20T12:43:12;5.27;;;1.20;;
19780;SDS011;10050;55.492;13.506;2023-12-20T12:45:38;2.77;;;1.00;;
19780;SDS011;10050;55.492;13.506;2023-12-20T12:48:04;2.73;;;0.90;;
19780;SDS011;10050;55.492;13.506;2023-12-20T12:50:30;4.13;;;1.17;;
19780;SDS011;10050;55.492;13.506;2023-12-20T12:52:56;2.93;;;1.20;;
19780;SDS011;10050;55.492;13.506;2023-12-20T12:55:22;3.47;;;1.03;;
19780;SDS011;10050;55.492;13.506;2023-12-20T12:57:47;3.33;;;1.27;;
19780;SDS011;10050;55.492;13.506;2023-12-20T13:00:13;3.80;;;1.13;;
19780;SDS011;10050;55.492;13.506;2023-12-20T13:02:39;1.27;;;1.00;;
19780;SDS011;10050;55.492;13.506;2023-12-20T13:05:08;3.97;;;1.20;;
19780;SDS011;10050;55.492;13.506;2023-12-20T13:07:34;2.60;;;1.13;;
19780;SDS011;10050;55.492;13.506;2023-12-20T13:10:00;3.57;;;1.10;;
19780;SDS011;10050;55.492;13.506;2023-12-20T13:12:26;2.37;;;0.90;;
19780;SDS011;10050;55.492;13.506;2023-12-20T13:14:51;3.03;;;1.03;;
19780;SDS011;10050;55.492;13.506;2023-12-20T13:17:18;3.47;;;1.03;;
19780;SDS011;10050;55.492;13.506;2023-12-20T13:19:44;4.57;;;1.40;;
19780;SDS011;10050;55.492;13.506;2023-12-20T13:22:10;1.30;;;1.20;;
19780;SDS011;10050;55.492;13.506;2023-12-20T13:24:35;4.43;;;1.03;;
19780;SDS011;10050;55.492;13.506;2023-12-20T13:27:01;6.93;;;1.40;;
19780;SDS011;10050;55.492;13.506;2023-12-20T13:29:30;3.17;;;1.47;;
19780;SDS011;10050;55.492;13.506;2023-12-20T13:31:56;2.83;;;1.73;;
19780;SDS011;10050;55.492;13.506;2023-12-20T13:34:22;2.73;;;1.33;;
19780;SDS011;10050;55.492;13.506;2023-12-20T13:36:48;5.60;;;1.20;;
19780;SDS011;10050;55.492;13.506;2023-12-20T13:39:15;3.33;;;1.23;;
19780;SDS011;10050;55.492;13.506;2023-12-20T13:41:41;3.13;;;1.20;;
19780;SDS011;10050;55.492;13.506;2023-12-20T13:44:07;5.87;;;1.53;;
19780;SDS011;10050;55.492;13.506;2023-12-20T13:46:33;1.50;;;1.10;;
19780;SDS011;10050;55.492;13.506;2023-12-20T13:48:58;2.17;;;0.90;;
19780;SDS011;10050;55.492;13.506;2023-12-20T13:51:24;7.20;;;1.40;;
19780;SDS011;10050;55.492;13.506;2023-12-20T13:53:50;4.60;;;1.30;;
19780;SDS011;10050;55.492;13.506;2023-12-20T13:56:16;4.50;;;1.27;;
19780;SDS011;10050;55.492;13.506;2023-12-20T13:58:41;7.73;;;1.87;;
19780;SDS011;10050;55.492;13.506;2023-12-20T14:01:08;7.17;;;1.70;;
19780;SDS011;10050;55.492;13.506;2023-12-20T14:03:35;4.73;;;1.57;;
19780;SDS011;10050;55.492;13.506;2023-12-20T14:06:01;2.60;;;1.40;;
19780;SDS011;10050;55.492;13.506;2023-12-20T14:08:26;2.93;;;1.23;;
19780;SDS011;10050;55.492;13.506;2023-12-20T14:10:52;5.40;;;1.00;;
19780;SDS011;10050;55.492;13.506;2023-12-20T14:13:18;3.93;;;1.33;;
19780;SDS011;10050;55.492;13.506;2023-12-20T14:15:44;1.90;;;1.00;;
19780;SDS011;10050;55.492;13.506;2023-12-20T14:18:10;1.43;;;1.20;;
19780;SDS011;10050;55.492;13.506;2023-12-20T14:20:37;1.60;;;1.10;;
19780;SDS011;10050;55.492;13.506;2023-12-20T14:23:04;2.10;;;1.33;;
19780;SDS011;10050;55.492;13.506;2023-12-20T14:25:30;2.23;;;1.17;;
19780;SDS011;10050;55.492;13.506;2023-12-20T14:27:58;3.63;;;1.10;;
19780;SDS011;10050;55.492;13.506;2023-12-20T14:30:24;3.93;;;1.70;;